sensor_id;sensor_type;location;lat;lon;timestamp;temperature;humidity
41628;DHT22;27321;50.816;6.054;2023-03-22T00:00:49;13.10;69.20
41628;DHT22;27321;50.816;6.054;2023-03-22T00:03:51;13.00;69.30
41628;DHT22;27321;50.816;6.054;2023-03-22T00:06:52;13.00;69.50
41628;DHT22;27321;50.816;6.054;2023-03-22T00:09:53;13.00;69.40
41628;DHT22;27321;50.816;6.054;2023-03-22T00:12:54;13.00;69.40
41628;DHT22;27321;50.816;6.054;2023-03-22T00:15:55;13.00;69.30
41628;DHT22;27321;50.816;6.054;2023-03-22T00:18:59;13.00;69.30
41628;DHT22;27321;50.816;6.054;2023-03-22T00:22:00;12.90;69.70
41628;DHT22;27321;50.816;6.054;2023-03-22T00:25:01;12.80;69.80
41628;DHT22;27321;50.816;6.054;2023-03-22T00:28:02;12.80;69.80
41628;DHT22;27321;50.816;6.054;2023-03-22T00:31:04;12.80;69.90
41628;DHT22;27321;50.816;6.054;2023-03-22T00:34:06;12.80;70.00
41628;DHT22;27321;50.816;6.054;2023-03-22T00:37:07;12.70;70.20
41628;DHT22;27321;50.816;6.054;2023-03-22T00:40:11;12.70;70.20
41628;DHT22;27321;50.816;6.054;2023-03-22T00:43:13;12.70;70.30
41628;DHT22;27321;50.816;6.054;2023-03-22T00:46:19;12.70;70.60
41628;DHT22;27321;50.816;6.054;2023-03-22T00:49:20;12.70;70.50
41628;DHT22;27321;50.816;6.054;2023-03-22T00:52:21;12.60;70.50
41628;DHT22;27321;50.816;6.054;2023-03-22T00:55:22;12.60;70.80
41628;DHT22;27321;50.816;6.054;2023-03-22T00:58:24;12.60;70.80
41628;DHT22;27321;50.816;6.054;2023-03-22T01:01:25;12.60;71.00
41628;DHT22;27321;50.816;6.054;2023-03-22T01:04:26;12.50;71.10
41628;DHT22;27321;50.816;6.054;2023-03-22T01:07:27;12.50;71.20
41628;DHT22;27321;50.816;6.054;2023-03-22T01:10:28;12.50;71.20
41628;DHT22;27321;50.816;6.054;2023-03-22T01:13:29;12.50;71.10
41628;DHT22;27321;50.816;6.054;2023-03-22T01:16:32;12.50;71.30
41628;DHT22;27321;50.816;6.054;2023-03-22T01:19:34;12.50;71.10
41628;DHT22;27321;50.816;6.054;2023-03-22T01:22:36;12.50;71.00
41628;DHT22;27321;50.816;6.054;2023-03-22T01:25:37;12.50;71.10
41628;DHT22;27321;50.816;6.054;2023-03-22T01:28:38;12.50;71.30
41628;DHT22;27321;50.816;6.054;2023-03-22T01:31:40;12.50;71.10
41628;DHT22;27321;50.816;6.054;2023-03-22T01:34:41;12.40;71.60
41628;DHT22;27321;50.816;6.054;2023-03-22T01:37:42;12.40;71.50
41628;DHT22;27321;50.816;6.054;2023-03-22T01:40:45;12.30;71.50
41628;DHT22;27321;50.816;6.054;2023-03-22T01:44:09;12.30;71.70
41628;DHT22;27321;50.816;6.054;2023-03-22T01:47:12;12.30;71.80
41628;DHT22;27321;50.816;6.054;2023-03-22T01:50:14;12.30;71.70
41628;DHT22;27321;50.816;6.054;2023-03-22T01:53:19;12.30;72.20
41628;DHT22;27321;50.816;6.054;2023-03-22T01:56:25;12.30;71.80
41628;DHT22;27321;50.816;6.054;2023-03-22T01:59:29;12.30;71.90
41628;DHT22;27321;50.816;6.054;2023-03-22T02:02:52;12.20;72.30
41628;DHT22;27321;50.816;6.054;2023-03-22T02:06:02;12.20;72.10
41628;DHT22;27321;50.816;6.054;2023-03-22T02:09:09;12.30;72.10
41628;DHT22;27321;50.816;6.054;2023-03-22T02:16:44;12.20;72.20
41628;DHT22;27321;50.816;6.054;2023-03-22T02:20:15;12.10;72.30
41628;DHT22;27321;50.816;6.054;2023-03-22T02:38:29;12.10;72.40
41628;DHT22;27321;50.816;6.054;2023-03-22T02:49:15;12.00;72.80
41628;DHT22;27321;50.816;6.054;2023-03-22T02:55:54;11.90;73.20
41628;DHT22;27321;50.816;6.054;2023-03-22T02:59:00;12.00;73.00
41628;DHT22;27321;50.816;6.054;2023-03-22T03:02:04;12.00;72.70
41628;DHT22;27321;50.816;6.054;2023-03-22T03:05:10;12.00;73.10
41628;DHT22;27321;50.816;6.054;2023-03-22T03:08:17;12.00;72.90
41628;DHT22;27321;50.816;6.054;2023-03-22T03:11:20;11.90;72.70
41628;DHT22;27321;50.816;6.054;2023-03-22T03:14:30;11.90;72.90
41628;DHT22;27321;50.816;6.054;2023-03-22T03:17:47;11.90;72.90
41628;DHT22;27321;50.816;6.054;2023-03-22T03:31:24;11.80;73.20
41628;DHT22;27321;50.816;6.054;2023-03-22T03:38:02;11.70;73.10
41628;DHT22;27321;50.816;6.054;2023-03-22T03:41:13;11.70;73.00
41628;DHT22;27321;50.816;6.054;2023-03-22T03:44:17;11.60;73.50
41628;DHT22;27321;50.816;6.054;2023-03-22T03:47:19;11.60;73.50
41628;DHT22;27321;50.816;6.054;2023-03-22T03:50:20;11.60;73.50
41628;DHT22;27321;50.816;6.054;2023-03-22T03:53:22;11.60;73.60
41628;DHT22;27321;50.816;6.054;2023-03-22T03:56:23;11.60;73.70
41628;DHT22;27321;50.816;6.054;2023-03-22T03:59:25;11.60;73.80
41628;DHT22;27321;50.816;6.054;2023-03-22T04:02:27;11.80;73.80
41628;DHT22;27321;50.816;6.054;2023-03-22T04:05:32;11.80;73.30
41628;DHT22;27321;50.816;6.054;2023-03-22T04:08:33;11.70;73.20
41628;DHT22;27321;50.816;6.054;2023-03-22T04:11:34;11.70;73.60
41628;DHT22;27321;50.816;6.054;2023-03-22T04:14:37;11.70;73.20
41628;DHT22;27321;50.816;6.054;2023-03-22T04:17:46;11.70;73.30
41628;DHT22;27321;50.816;6.054;2023-03-22T04:20:49;11.70;73.60
41628;DHT22;27321;50.816;6.054;2023-03-22T04:23:53;11.70;73.50
41628;DHT22;27321;50.816;6.054;2023-03-22T04:26:56;11.70;73.80
41628;DHT22;27321;50.816;6.054;2023-03-22T04:29:59;11.70;73.40
41628;DHT22;27321;50.816;6.054;2023-03-22T04:33:22;11.70;73.20
41628;DHT22;27321;50.816;6.054;2023-03-22T04:36:42;11.70;73.20
41628;DHT22;27321;50.816;6.054;2023-03-22T04:39:54;11.70;73.40
41628;DHT22;27321;50.816;6.054;2023-03-22T04:42:56;11.70;73.60
41628;DHT22;27321;50.816;6.054;2023-03-22T04:46:10;11.70;73.70
41628;DHT22;27321;50.816;6.054;2023-03-22T04:49:17;11.70;73.40
41628;DHT22;27321;50.816;6.054;2023-03-22T04:52:18;11.70;73.60
41628;DHT22;27321;50.816;6.054;2023-03-22T04:55:26;11.70;73.30
41628;DHT22;27321;50.816;6.054;2023-03-22T04:58:31;11.70;73.50
41628;DHT22;27321;50.816;6.054;2023-03-22T05:01:33;11.70;73.10
41628;DHT22;27321;50.816;6.054;2023-03-22T05:04:50;11.70;73.30
41628;DHT22;27321;50.816;6.054;2023-03-22T05:08:05;11.70;73.20
41628;DHT22;27321;50.816;6.054;2023-03-22T05:11:16;11.60;73.60
41628;DHT22;27321;50.816;6.054;2023-03-22T05:14:32;11.60;73.10
41628;DHT22;27321;50.816;6.054;2023-03-22T05:17:33;11.60;73.50
41628;DHT22;27321;50.816;6.054;2023-03-22T05:20:36;11.70;73.70
41628;DHT22;27321;50.816;6.054;2023-03-22T05:23:49;11.70;73.40
41628;DHT22;27321;50.816;6.054;2023-03-22T05:26:50;11.60;73.30
41628;DHT22;27321;50.816;6.054;2023-03-22T05:29:55;11.60;73.40
41628;DHT22;27321;50.816;6.054;2023-03-22T05:33:03;11.60;73.40
41628;DHT22;27321;50.816;6.054;2023-03-22T05:36:09;11.60;73.30
41628;DHT22;27321;50.816;6.054;2023-03-22T05:39:21;11.60;73.30
41628;DHT22;27321;50.816;6.054;2023-03-22T05:42:23;11.60;73.00
41628;DHT22;27321;50.816;6.054;2023-03-22T05:45:25;11.60;73.10
41628;DHT22;27321;50.816;6.054;2023-03-22T05:48:41;11.60;72.80
41628;DHT22;27321;50.816;6.054;2023-03-22T05:51:43;11.60;72.50
41628;DHT22;27321;50.816;6.054;2023-03-22T05:54:47;11.50;72.60
41628;DHT22;27321;50.816;6.054;2023-03-22T05:57:48;11.50;72.30
41628;DHT22;27321;50.816;6.054;2023-03-22T06:00:51;11.60;72.50
41628;DHT22;27321;50.816;6.054;2023-03-22T06:03:58;11.50;72.20
41628;DHT22;27321;50.816;6.054;2023-03-22T06:07:09;11.50;72.30
41628;DHT22;27321;50.816;6.054;2023-03-22T06:10:20;11.50;72.20
41628;DHT22;27321;50.816;6.054;2023-03-22T06:13:21;11.60;71.90
41628;DHT22;27321;50.816;6.054;2023-03-22T06:16:23;11.60;71.70
41628;DHT22;27321;50.816;6.054;2023-03-22T06:19:24;11.50;71.70
41628;DHT22;27321;50.816;6.054;2023-03-22T06:22:25;11.60;72.00
41628;DHT22;27321;50.816;6.054;2023-03-22T06:25:26;11.60;71.60
41628;DHT22;27321;50.816;6.054;2023-03-22T06:28:29;11.60;71.70
41628;DHT22;27321;50.816;6.054;2023-03-22T06:31:30;11.60;71.10
41628;DHT22;27321;50.816;6.054;2023-03-22T06:34:40;11.70;71.20
41628;DHT22;27321;50.816;6.054;2023-03-22T06:37:42;11.70;71.10
41628;DHT22;27321;50.816;6.054;2023-03-22T06:40:43;11.70;71.10
41628;DHT22;27321;50.816;6.054;2023-03-22T06:43:45;11.80;70.70
41628;DHT22;27321;50.816;6.054;2023-03-22T06:47:12;11.80;71.10
41628;DHT22;27321;50.816;6.054;2023-03-22T06:50:32;11.80;70.70
41628;DHT22;27321;50.816;6.054;2023-03-22T06:53:44;11.80;70.30
41628;DHT22;27321;50.816;6.054;2023-03-22T06:56:46;11.80;70.40
41628;DHT22;27321;50.816;6.054;2023-03-22T06:59:47;11.80;70.10
41628;DHT22;27321;50.816;6.054;2023-03-22T07:02:48;11.80;70.20
41628;DHT22;27321;50.816;6.054;2023-03-22T07:06:03;11.80;69.80
41628;DHT22;27321;50.816;6.054;2023-03-22T07:09:07;11.80;69.90
41628;DHT22;27321;50.816;6.054;2023-03-22T07:12:11;11.80;69.30
41628;DHT22;27321;50.816;6.054;2023-03-22T07:15:12;11.80;69.10
41628;DHT22;27321;50.816;6.054;2023-03-22T07:18:28;11.80;69.20
41628;DHT22;27321;50.816;6.054;2023-03-22T07:21:30;11.90;68.90
41628;DHT22;27321;50.816;6.054;2023-03-22T07:24:35;11.90;68.90
41628;DHT22;27321;50.816;6.054;2023-03-22T07:27:37;12.00;69.10
41628;DHT22;27321;50.816;6.054;2023-03-22T07:30:39;12.00;69.20
41628;DHT22;27321;50.816;6.054;2023-03-22T07:33:40;12.10;69.10
41628;DHT22;27321;50.816;6.054;2023-03-22T07:36:41;12.10;69.00
41628;DHT22;27321;50.816;6.054;2023-03-22T07:39:45;12.20;68.70
41628;DHT22;27321;50.816;6.054;2023-03-22T07:42:49;12.10;67.80
41628;DHT22;27321;50.816;6.054;2023-03-22T07:46:11;12.10;68.00
41628;DHT22;27321;50.816;6.054;2023-03-22T07:49:24;12.10;68.50
41628;DHT22;27321;50.816;6.054;2023-03-22T07:52:49;12.00;68.00
41628;DHT22;27321;50.816;6.054;2023-03-22T07:55:50;12.10;68.20
41628;DHT22;27321;50.816;6.054;2023-03-22T07:58:52;12.20;67.60
41628;DHT22;27321;50.816;6.054;2023-03-22T08:01:53;12.30;67.40
41628;DHT22;27321;50.816;6.054;2023-03-22T08:05:05;12.40;66.20
41628;DHT22;27321;50.816;6.054;2023-03-22T08:08:12;12.50;66.40
41628;DHT22;27321;50.816;6.054;2023-03-22T08:11:14;12.60;66.10
41628;DHT22;27321;50.816;6.054;2023-03-22T08:14:15;12.50;65.80
41628;DHT22;27321;50.816;6.054;2023-03-22T08:17:17;12.50;66.00
41628;DHT22;27321;50.816;6.054;2023-03-22T08:20:18;12.50;65.90
41628;DHT22;27321;50.816;6.054;2023-03-22T08:23:26;12.50;66.50
41628;DHT22;27321;50.816;6.054;2023-03-22T08:26:47;12.50;66.50
41628;DHT22;27321;50.816;6.054;2023-03-22T08:30:09;12.50;65.80
41628;DHT22;27321;50.816;6.054;2023-03-22T08:33:12;12.50;66.50
41628;DHT22;27321;50.816;6.054;2023-03-22T08:36:16;12.40;65.90
41628;DHT22;27321;50.816;6.054;2023-03-22T08:39:29;12.50;65.90
41628;DHT22;27321;50.816;6.054;2023-03-22T08:42:45;12.50;66.10
41628;DHT22;27321;50.816;6.054;2023-03-22T08:45:46;12.50;65.80
41628;DHT22;27321;50.816;6.054;2023-03-22T08:48:50;12.50;66.00
41628;DHT22;27321;50.816;6.054;2023-03-22T08:52:01;12.50;66.10
41628;DHT22;27321;50.816;6.054;2023-03-22T08:55:41;12.60;65.90
41628;DHT22;27321;50.816;6.054;2023-03-22T08:58:45;12.60;65.90
41628;DHT22;27321;50.816;6.054;2023-03-22T09:02:15;12.70;64.30
41628;DHT22;27321;50.816;6.054;2023-03-22T09:05:21;12.60;64.50
41628;DHT22;27321;50.816;6.054;2023-03-22T09:08:22;12.70;64.00
41628;DHT22;27321;50.816;6.054;2023-03-22T09:11:30;12.60;64.40
41628;DHT22;27321;50.816;6.054;2023-03-22T09:14:32;12.50;64.00
41628;DHT22;27321;50.816;6.054;2023-03-22T09:17:33;12.50;64.50
41628;DHT22;27321;50.816;6.054;2023-03-22T09:20:34;12.60;64.40
41628;DHT22;27321;50.816;6.054;2023-03-22T09:23:37;12.70;63.40
41628;DHT22;27321;50.816;6.054;2023-03-22T09:26:39;12.60;63.40
41628;DHT22;27321;50.816;6.054;2023-03-22T09:29:41;12.70;63.90
41628;DHT22;27321;50.816;6.054;2023-03-22T09:32:47;12.70;64.20
41628;DHT22;27321;50.816;6.054;2023-03-22T09:35:53;12.80;64.20
41628;DHT22;27321;50.816;6.054;2023-03-22T09:38:54;12.90;64.40
41628;DHT22;27321;50.816;6.054;2023-03-22T09:42:05;13.10;64.40
41628;DHT22;27321;50.816;6.054;2023-03-22T09:45:24;13.20;64.00
41628;DHT22;27321;50.816;6.054;2023-03-22T09:48:34;13.20;62.80
41628;DHT22;27321;50.816;6.054;2023-03-22T09:51:48;13.30;63.00
41628;DHT22;27321;50.816;6.054;2023-03-22T09:54:51;13.50;61.80
41628;DHT22;27321;50.816;6.054;2023-03-22T10:01:38;13.70;61.20
41628;DHT22;27321;50.816;6.054;2023-03-22T10:05:21;13.80;60.50
41628;DHT22;27321;50.816;6.054;2023-03-22T10:12:26;13.70;61.30
41628;DHT22;27321;50.816;6.054;2023-03-22T10:19:15;13.70;60.90
41628;DHT22;27321;50.816;6.054;2023-03-22T10:22:23;13.70;59.70
41628;DHT22;27321;50.816;6.054;2023-03-22T10:25:35;13.80;60.50
41628;DHT22;27321;50.816;6.054;2023-03-22T10:28:40;13.80;59.50
41628;DHT22;27321;50.816;6.054;2023-03-22T10:31:44;13.70;59.40
41628;DHT22;27321;50.816;6.054;2023-03-22T10:34:48;13.70;59.90
41628;DHT22;27321;50.816;6.054;2023-03-22T10:37:50;13.90;60.10
41628;DHT22;27321;50.816;6.054;2023-03-22T10:40:54;13.80;59.20
41628;DHT22;27321;50.816;6.054;2023-03-22T10:43:59;13.80;59.30
41628;DHT22;27321;50.816;6.054;2023-03-22T10:47:02;13.80;59.20
41628;DHT22;27321;50.816;6.054;2023-03-22T10:50:20;13.80;58.70
41628;DHT22;27321;50.816;6.054;2023-03-22T10:56:38;13.70;58.60
41628;DHT22;27321;50.816;6.054;2023-03-22T10:59:54;13.70;59.20
41628;DHT22;27321;50.816;6.054;2023-03-22T11:03:00;13.80;59.60
41628;DHT22;27321;50.816;6.054;2023-03-22T11:09:19;13.90;59.40
41628;DHT22;27321;50.816;6.054;2023-03-22T11:12:22;14.00;59.00
41628;DHT22;27321;50.816;6.054;2023-03-22T11:15:29;14.00;58.80
41628;DHT22;27321;50.816;6.054;2023-03-22T11:18:33;14.10;59.40
41628;DHT22;27321;50.816;6.054;2023-03-22T11:21:34;14.10;59.50
41628;DHT22;27321;50.816;6.054;2023-03-22T11:24:35;14.20;59.10
41628;DHT22;27321;50.816;6.054;2023-03-22T11:27:49;14.40;59.50
41628;DHT22;27321;50.816;6.054;2023-03-22T11:31:10;14.50;59.30
41628;DHT22;27321;50.816;6.054;2023-03-22T11:34:16;14.50;58.70
41628;DHT22;27321;50.816;6.054;2023-03-22T11:37:24;14.50;58.50
41628;DHT22;27321;50.816;6.054;2023-03-22T11:40:33;14.60;58.70
41628;DHT22;27321;50.816;6.054;2023-03-22T11:43:39;14.50;58.40
41628;DHT22;27321;50.816;6.054;2023-03-22T11:46:50;14.60;58.90
41628;DHT22;27321;50.816;6.054;2023-03-22T11:49:54;14.70;58.70
41628;DHT22;27321;50.816;6.054;2023-03-22T11:52:57;14.90;58.30
41628;DHT22;27321;50.816;6.054;2023-03-22T11:56:02;14.90;58.10
41628;DHT22;27321;50.816;6.054;2023-03-22T11:59:11;15.00;58.60
41628;DHT22;27321;50.816;6.054;2023-03-22T12:02:21;15.00;57.70
41628;DHT22;27321;50.816;6.054;2023-03-22T12:05:32;14.80;58.10
41628;DHT22;27321;50.816;6.054;2023-03-22T12:08:44;14.70;57.90
41628;DHT22;27321;50.816;6.054;2023-03-22T12:11:52;14.70;58.30
41628;DHT22;27321;50.816;6.054;2023-03-22T12:15:01;14.60;57.90
41628;DHT22;27321;50.816;6.054;2023-03-22T12:18:09;14.60;58.50
41628;DHT22;27321;50.816;6.054;2023-03-22T12:21:16;14.70;58.90
41628;DHT22;27321;50.816;6.054;2023-03-22T12:24:25;14.80;58.10
41628;DHT22;27321;50.816;6.054;2023-03-22T12:27:32;14.70;57.60
41628;DHT22;27321;50.816;6.054;2023-03-22T12:30:43;14.80;58.40
41628;DHT22;27321;50.816;6.054;2023-03-22T12:33:53;14.80;58.40
41628;DHT22;27321;50.816;6.054;2023-03-22T12:36:56;14.90;58.40
41628;DHT22;27321;50.816;6.054;2023-03-22T12:39:58;14.90;58.60
41628;DHT22;27321;50.816;6.054;2023-03-22T12:50:16;15.00;58.00
41628;DHT22;27321;50.816;6.054;2023-03-22T12:53:21;15.00;57.90
41628;DHT22;27321;50.816;6.054;2023-03-22T12:56:37;15.10;57.30
41628;DHT22;27321;50.816;6.054;2023-03-22T12:59:42;15.20;57.50
41628;DHT22;27321;50.816;6.054;2023-03-22T13:02:49;15.20;57.10
41628;DHT22;27321;50.816;6.054;2023-03-22T13:06:26;15.40;57.60
41628;DHT22;27321;50.816;6.054;2023-03-22T13:09:43;15.40;57.30
41628;DHT22;27321;50.816;6.054;2023-03-22T13:19:28;15.20;57.40
41628;DHT22;27321;50.816;6.054;2023-03-22T13:25:58;15.10;58.10
41628;DHT22;27321;50.816;6.054;2023-03-22T13:32:29;15.00;58.00
41628;DHT22;27321;50.816;6.054;2023-03-22T13:38:42;14.90;58.60
41628;DHT22;27321;50.816;6.054;2023-03-22T13:42:06;14.90;58.50
41628;DHT22;27321;50.816;6.054;2023-03-22T13:45:31;14.90;58.80
41628;DHT22;27321;50.816;6.054;2023-03-22T13:48:56;14.80;59.10
41628;DHT22;27321;50.816;6.054;2023-03-22T13:52:43;14.80;59.10
41628;DHT22;27321;50.816;6.054;2023-03-22T13:58:53;14.60;59.90
41628;DHT22;27321;50.816;6.054;2023-03-22T14:05:21;14.60;60.00
41628;DHT22;27321;50.816;6.054;2023-03-22T14:08:27;14.60;60.90
41628;DHT22;27321;50.816;6.054;2023-03-22T14:11:45;14.70;60.30
41628;DHT22;27321;50.816;6.054;2023-03-22T14:14:58;14.70;60.00
41628;DHT22;27321;50.816;6.054;2023-03-22T14:18:07;14.60;60.50
41628;DHT22;27321;50.816;6.054;2023-03-22T14:21:20;14.70;59.90
41628;DHT22;27321;50.816;6.054;2023-03-22T14:24:25;14.70;60.20
41628;DHT22;27321;50.816;6.054;2023-03-22T14:27:32;14.70;60.80
41628;DHT22;27321;50.816;6.054;2023-03-22T14:30:37;14.70;60.80
41628;DHT22;27321;50.816;6.054;2023-03-22T14:33:40;14.70;60.40
41628;DHT22;27321;50.816;6.054;2023-03-22T14:36:45;14.80;60.70
41628;DHT22;27321;50.816;6.054;2023-03-22T14:39:50;14.90;60.60
41628;DHT22;27321;50.816;6.054;2023-03-22T14:42:51;14.90;60.50
41628;DHT22;27321;50.816;6.054;2023-03-22T14:46:06;15.00;60.40
41628;DHT22;27321;50.816;6.054;2023-03-22T14:49:19;15.00;59.70
41628;DHT22;27321;50.816;6.054;2023-03-22T14:52:28;15.00;60.20
41628;DHT22;27321;50.816;6.054;2023-03-22T14:55:31;15.00;60.30
41628;DHT22;27321;50.816;6.054;2023-03-22T14:58:36;15.00;60.70
41628;DHT22;27321;50.816;6.054;2023-03-22T15:01:55;15.00;60.60
41628;DHT22;27321;50.816;6.054;2023-03-22T15:04:59;15.10;60.00
41628;DHT22;27321;50.816;6.054;2023-03-22T15:08:21;15.00;60.00
41628;DHT22;27321;50.816;6.054;2023-03-22T15:11:25;15.00;60.40
41628;DHT22;27321;50.816;6.054;2023-03-22T15:14:29;15.00;61.00
41628;DHT22;27321;50.816;6.054;2023-03-22T15:17:33;15.00;60.20
41628;DHT22;27321;50.816;6.054;2023-03-22T15:20:37;14.90;60.50
41628;DHT22;27321;50.816;6.054;2023-03-22T15:23:47;14.90;61.30
41628;DHT22;27321;50.816;6.054;2023-03-22T15:26:52;14.90;60.60
41628;DHT22;27321;50.816;6.054;2023-03-22T15:29:53;14.90;60.80
41628;DHT22;27321;50.816;6.054;2023-03-22T15:33:16;14.80;61.00
41628;DHT22;27321;50.816;6.054;2023-03-22T15:36:20;14.80;61.10
41628;DHT22;27321;50.816;6.054;2023-03-22T15:39:26;14.80;60.50
41628;DHT22;27321;50.816;6.054;2023-03-22T15:42:38;14.80;60.40
41628;DHT22;27321;50.816;6.054;2023-03-22T15:45:43;14.90;60.50
41628;DHT22;27321;50.816;6.054;2023-03-22T15:52:33;14.90;60.20
41628;DHT22;27321;50.816;6.054;2023-03-22T15:55:37;14.80;59.90
41628;DHT22;27321;50.816;6.054;2023-03-22T15:58:39;14.80;60.60
41628;DHT22;27321;50.816;6.054;2023-03-22T16:01:41;14.70;60.60
41628;DHT22;27321;50.816;6.054;2023-03-22T16:04:43;14.80;60.30
41628;DHT22;27321;50.816;6.054;2023-03-22T16:07:44;14.70;60.10
41628;DHT22;27321;50.816;6.054;2023-03-22T16:10:46;14.70;60.30
41628;DHT22;27321;50.816;6.054;2023-03-22T16:13:48;14.70;60.10
41628;DHT22;27321;50.816;6.054;2023-03-22T16:16:48;14.80;60.10
41628;DHT22;27321;50.816;6.054;2023-03-22T16:19:51;14.70;60.30
41628;DHT22;27321;50.816;6.054;2023-03-22T16:22:52;14.60;60.50
41628;DHT22;27321;50.816;6.054;2023-03-22T16:25:54;14.60;60.70
41628;DHT22;27321;50.816;6.054;2023-03-22T16:28:55;14.50;61.00
41628;DHT22;27321;50.816;6.054;2023-03-22T16:31:55;14.60;61.10
41628;DHT22;27321;50.816;6.054;2023-03-22T16:34:57;14.50;61.30
41628;DHT22;27321;50.816;6.054;2023-03-22T16:37:58;14.50;61.60
41628;DHT22;27321;50.816;6.054;2023-03-22T16:40:59;14.60;61.80
41628;DHT22;27321;50.816;6.054;2023-03-22T16:44:01;14.60;61.50
41628;DHT22;27321;50.816;6.054;2023-03-22T16:47:02;14.60;61.50
41628;DHT22;27321;50.816;6.054;2023-03-22T16:50:03;14.60;62.10
41628;DHT22;27321;50.816;6.054;2023-03-22T16:53:05;14.60;62.10
41628;DHT22;27321;50.816;6.054;2023-03-22T16:56:10;14.60;62.10
41628;DHT22;27321;50.816;6.054;2023-03-22T16:59:13;14.50;62.10
41628;DHT22;27321;50.816;6.054;2023-03-22T17:05:24;14.50;62.60
41628;DHT22;27321;50.816;6.054;2023-03-22T17:08:27;14.50;62.90
41628;DHT22;27321;50.816;6.054;2023-03-22T17:11:28;14.50;63.10
41628;DHT22;27321;50.816;6.054;2023-03-22T17:14:30;14.50;62.90
41628;DHT22;27321;50.816;6.054;2023-03-22T17:17:31;14.40;63.40
41628;DHT22;27321;50.816;6.054;2023-03-22T17:20:32;14.30;63.60
41628;DHT22;27321;50.816;6.054;2023-03-22T17:23:33;14.30;63.80
41628;DHT22;27321;50.816;6.054;2023-03-22T17:26:34;14.30;64.20
41628;DHT22;27321;50.816;6.054;2023-03-22T17:29:36;14.30;64.30
41628;DHT22;27321;50.816;6.054;2023-03-22T17:32:38;14.20;64.60
41628;DHT22;27321;50.816;6.054;2023-03-22T17:35:39;14.20;64.90
41628;DHT22;27321;50.816;6.054;2023-03-22T17:38:41;14.20;65.10
41628;DHT22;27321;50.816;6.054;2023-03-22T17:41:42;14.20;65.00
41628;DHT22;27321;50.816;6.054;2023-03-22T17:44:43;14.30;64.80
41628;DHT22;27321;50.816;6.054;2023-03-22T17:47:44;14.30;64.60
41628;DHT22;27321;50.816;6.054;2023-03-22T17:50:45;14.30;64.90
41628;DHT22;27321;50.816;6.054;2023-03-22T17:53:46;14.30;65.00
41628;DHT22;27321;50.816;6.054;2023-03-22T17:56:49;14.30;65.20
41628;DHT22;27321;50.816;6.054;2023-03-22T17:59:50;14.20;65.20
41628;DHT22;27321;50.816;6.054;2023-03-22T18:02:52;14.20;65.40
41628;DHT22;27321;50.816;6.054;2023-03-22T18:05:54;14.20;65.50
41628;DHT22;27321;50.816;6.054;2023-03-22T18:08:55;14.20;65.50
41628;DHT22;27321;50.816;6.054;2023-03-22T18:11:56;14.20;65.30
41628;DHT22;27321;50.816;6.054;2023-03-22T18:14:57;14.30;65.50
41628;DHT22;27321;50.816;6.054;2023-03-22T18:17:59;14.30;65.60
41628;DHT22;27321;50.816;6.054;2023-03-22T18:21:10;14.20;65.60
41628;DHT22;27321;50.816;6.054;2023-03-22T18:24:12;14.20;65.80
41628;DHT22;27321;50.816;6.054;2023-03-22T18:27:13;14.10;65.80
41628;DHT22;27321;50.816;6.054;2023-03-22T18:30:17;14.10;66.10
41628;DHT22;27321;50.816;6.054;2023-03-22T18:33:21;14.10;66.00
41628;DHT22;27321;50.816;6.054;2023-03-22T18:36:22;14.10;65.90
41628;DHT22;27321;50.816;6.054;2023-03-22T18:39:24;14.10;65.90
41628;DHT22;27321;50.816;6.054;2023-03-22T18:42:25;14.10;65.80
41628;DHT22;27321;50.816;6.054;2023-03-22T18:45:29;14.10;65.90
41628;DHT22;27321;50.816;6.054;2023-03-22T18:48:31;14.10;66.30
41628;DHT22;27321;50.816;6.054;2023-03-22T18:51:32;14.10;66.80
41628;DHT22;27321;50.816;6.054;2023-03-22T18:54:34;14.10;68.10
41628;DHT22;27321;50.816;6.054;2023-03-22T18:57:37;14.00;69.00
41628;DHT22;27321;50.816;6.054;2023-03-22T19:00:39;14.00;69.40
41628;DHT22;27321;50.816;6.054;2023-03-22T19:03:40;14.00;69.10
41628;DHT22;27321;50.816;6.054;2023-03-22T19:06:41;13.90;69.70
41628;DHT22;27321;50.816;6.054;2023-03-22T19:09:44;13.90;69.50
41628;DHT22;27321;50.816;6.054;2023-03-22T19:12:45;13.90;69.60
41628;DHT22;27321;50.816;6.054;2023-03-22T19:15:49;13.80;69.70
41628;DHT22;27321;50.816;6.054;2023-03-22T19:18:50;13.90;69.50
41628;DHT22;27321;50.816;6.054;2023-03-22T19:21:51;13.80;69.40
41628;DHT22;27321;50.816;6.054;2023-03-22T19:24:53;13.80;69.50
41628;DHT22;27321;50.816;6.054;2023-03-22T19:27:54;13.80;69.70
41628;DHT22;27321;50.816;6.054;2023-03-22T19:30:55;13.90;69.80
41628;DHT22;27321;50.816;6.054;2023-03-22T19:33:57;13.90;69.30
41628;DHT22;27321;50.816;6.054;2023-03-22T19:36:58;13.80;69.50
41628;DHT22;27321;50.816;6.054;2023-03-22T19:39:59;13.80;69.30
41628;DHT22;27321;50.816;6.054;2023-03-22T19:43:00;13.80;69.10
41628;DHT22;27321;50.816;6.054;2023-03-22T19:46:01;13.90;69.10
41628;DHT22;27321;50.816;6.054;2023-03-22T19:49:03;13.80;69.20
41628;DHT22;27321;50.816;6.054;2023-03-22T19:52:05;13.80;69.20
41628;DHT22;27321;50.816;6.054;2023-03-22T19:55:06;13.70;69.10
41628;DHT22;27321;50.816;6.054;2023-03-22T19:58:09;13.80;69.40
41628;DHT22;27321;50.816;6.054;2023-03-22T20:01:10;13.70;69.30
41628;DHT22;27321;50.816;6.054;2023-03-22T20:04:11;13.70;69.50
41628;DHT22;27321;50.816;6.054;2023-03-22T20:07:12;13.60;69.80
41628;DHT22;27321;50.816;6.054;2023-03-22T20:10:16;13.60;70.00
41628;DHT22;27321;50.816;6.054;2023-03-22T20:13:18;13.70;70.10
41628;DHT22;27321;50.816;6.054;2023-03-22T20:16:19;13.70;70.30
41628;DHT22;27321;50.816;6.054;2023-03-22T20:19:21;13.70;70.90
41628;DHT22;27321;50.816;6.054;2023-03-22T20:22:23;13.70;70.90
41628;DHT22;27321;50.816;6.054;2023-03-22T20:25:24;13.70;70.90
41628;DHT22;27321;50.816;6.054;2023-03-22T20:28:30;13.70;71.00
41628;DHT22;27321;50.816;6.054;2023-03-22T20:31:32;13.70;70.70
41628;DHT22;27321;50.816;6.054;2023-03-22T20:34:33;13.70;70.30
41628;DHT22;27321;50.816;6.054;2023-03-22T20:37:35;13.60;70.30
41628;DHT22;27321;50.816;6.054;2023-03-22T20:40:37;13.60;70.20
41628;DHT22;27321;50.816;6.054;2023-03-22T20:43:38;13.60;70.30
41628;DHT22;27321;50.816;6.054;2023-03-22T20:46:39;13.60;70.50
41628;DHT22;27321;50.816;6.054;2023-03-22T20:49:41;13.60;70.20
41628;DHT22;27321;50.816;6.054;2023-03-22T20:52:42;13.70;70.40
41628;DHT22;27321;50.816;6.054;2023-03-22T20:55:46;13.60;70.30
41628;DHT22;27321;50.816;6.054;2023-03-22T20:58:47;13.60;70.50
41628;DHT22;27321;50.816;6.054;2023-03-22T21:01:49;13.60;70.10
41628;DHT22;27321;50.816;6.054;2023-03-22T21:04:50;13.60;70.40
41628;DHT22;27321;50.816;6.054;2023-03-22T21:07:52;13.50;70.70
41628;DHT22;27321;50.816;6.054;2023-03-22T21:10:57;13.50;71.10